createdAt,value
2023-04-06T00:00:09.821Z,88.30
2023-04-06T00:02:38.166Z,88.30
2023-04-06T00:05:08.263Z,88.50
2023-04-06T00:07:36.453Z,88.30
2023-04-06T00:10:05.540Z,88.30
2023-04-06T00:12:33.494Z,88.90
2023-04-06T00:15:02.512Z,88.90
2023-04-06T00:17:30.898Z,89.30
2023-04-06T00:19:58.852Z,89.10
2023-04-06T00:22:28.122Z,89.60
2023-04-06T00:24:56.190Z,89.70
2023-04-06T00:27:24.129Z,89.70
2023-04-06T00:29:52.082Z,89.90
2023-04-06T00:32:20.188Z,90.10
2023-04-06T00:34:48.145Z,90.10
2023-04-06T00:37:16.117Z,90.40
2023-04-06T00:39:45.497Z,90.30
2023-04-06T00:42:15.391Z,90.40
2023-04-06T00:44:43.899Z,90.50
2023-04-06T00:47:11.879Z,90.50
2023-04-06T00:49:39.865Z,90.60
2023-04-06T00:52:07.760Z,90.60
2023-04-06T00:54:35.838Z,90.60
2023-04-06T00:57:05.909Z,90.80
2023-04-06T00:59:34.335Z,91.20
2023-04-06T01:02:03.977Z,91.50
2023-04-06T01:04:41.238Z,91.80
2023-04-06T01:07:14.427Z,91.80
2023-04-06T01:09:50.486Z,92.60
2023-04-06T01:12:25.082Z,92.30
2023-04-06T01:14:53.432Z,92.20
2023-04-06T01:17:21.761Z,92.50
2023-04-06T01:19:50.518Z,92.50
2023-04-06T01:22:26.481Z,92.70
2023-04-06T01:25:00.567Z,92.80
2023-04-06T01:27:34.716Z,92.70
2023-04-06T01:30:18.367Z,92.70
2023-04-06T01:32:51.194Z,92.70
2023-04-06T01:35:29.161Z,92.80
2023-04-06T01:38:08.397Z,92.80
2023-04-06T01:40:37.835Z,92.80
2023-04-06T01:43:06.081Z,93.20
2023-04-06T01:45:41.109Z,93.00
2023-04-06T01:48:17.362Z,93.10
2023-04-06T01:50:45.405Z,93.10
2023-04-06T01:53:18.874Z,93.30
2023-04-06T01:55:47.791Z,93.20
2023-04-06T01:58:26.485Z,93.40
2023-04-06T02:00:55.365Z,93.70
2023-04-06T02:03:23.376Z,93.90
2023-04-06T02:05:59.542Z,93.80
2023-04-06T02:08:36.917Z,93.90
2023-04-06T02:11:05.097Z,94.30
2023-04-06T02:13:40.719Z,94.10
2023-04-06T02:16:09.995Z,94.20
2023-04-06T02:18:38.092Z,94.30
2023-04-06T02:21:06.116Z,94.40
2023-04-06T02:23:34.067Z,94.30
2023-04-06T02:26:03.352Z,94.50
2023-04-06T02:28:31.421Z,94.40
2023-04-06T02:30:59.355Z,94.50
2023-04-06T02:33:28.912Z,94.70
2023-04-06T02:35:57.011Z,94.80
2023-04-06T02:38:25.126Z,94.90
2023-04-06T02:40:53.927Z,95.10
2023-04-06T02:43:26.546Z,95.20
2023-04-06T02:46:05.548Z,95.40
2023-04-06T02:48:38.223Z,95.20
2023-04-06T02:51:06.996Z,95.30
2023-04-06T02:53:35.442Z,95.50
2023-04-06T02:56:03.894Z,95.50
2023-04-06T02:58:48.964Z,95.80
2023-04-06T03:01:17.646Z,95.90
2023-04-06T03:03:45.981Z,96.00
2023-04-06T03:06:21.761Z,96.20
2023-04-06T03:08:54.078Z,96.50
2023-04-06T03:11:22.532Z,96.60
2023-04-06T03:13:54.112Z,96.50
2023-04-06T03:16:22.349Z,96.60
2023-04-06T03:18:50.695Z,96.70
2023-04-06T03:21:20.294Z,96.80
2023-04-06T03:23:52.017Z,97.00
2023-04-06T03:26:20.354Z,97.10
2023-04-06T03:28:48.348Z,97.00
2023-04-06T03:31:18.409Z,97.20
2023-04-06T03:34:00.115Z,97.20
2023-04-06T03:36:32.299Z,97.20
2023-04-06T03:39:01.181Z,97.40
2023-04-06T03:41:29.488Z,97.40
2023-04-06T03:44:03.464Z,97.60
2023-04-06T03:46:32.777Z,97.50
2023-04-06T03:49:01.515Z,97.60
2023-04-06T03:51:30.451Z,97.70
2023-04-06T03:53:58.504Z,97.80
2023-04-06T03:56:26.449Z,97.90
2023-04-06T03:58:55.861Z,98.00
2023-04-06T04:01:24.032Z,97.90
2023-04-06T04:03:53.469Z,98.00
2023-04-06T04:06:21.636Z,98.10
2023-04-06T04:08:49.613Z,98.40
2023-04-06T04:11:17.885Z,98.20
2023-04-06T04:13:49.235Z,98.40
2023-04-06T04:16:17.551Z,98.40
2023-04-06T04:18:46.436Z,98.50
2023-04-06T04:21:15.847Z,98.40
2023-04-06T04:23:43.784Z,98.40
2023-04-06T04:26:12.109Z,98.40
2023-04-06T04:28:40.874Z,98.50
2023-04-06T04:31:09.697Z,98.90
2023-04-06T04:33:37.930Z,98.60
2023-04-06T04:36:11.929Z,98.60
2023-04-06T04:38:44.800Z,98.70
2023-04-06T04:41:12.919Z,98.70
2023-04-06T04:43:43.977Z,98.70
2023-04-06T04:46:13.854Z,98.70
2023-04-06T04:48:44.354Z,98.90
2023-04-06T04:51:12.307Z,98.80
2023-04-06T04:54:01.844Z,98.90
2023-04-06T04:56:32.607Z,99.10
2023-04-06T04:59:10.670Z,99.20
2023-04-06T05:01:54.165Z,99.20
2023-04-06T05:04:27.335Z,99.30
2023-04-06T05:07:08.005Z,99.50
2023-04-06T05:09:39.490Z,99.60
2023-04-06T05:12:08.939Z,99.70
2023-04-06T05:14:44.773Z,99.60
2023-04-06T05:17:16.525Z,99.70
2023-04-06T05:19:45.223Z,99.60
2023-04-06T05:22:17.081Z,99.60
2023-04-06T05:24:48.704Z,99.70
2023-04-06T05:27:16.868Z,99.60
2023-04-06T05:29:44.976Z,99.70
2023-04-06T05:32:13.027Z,99.90
2023-04-06T05:34:41.715Z,99.90
2023-04-06T05:37:09.884Z,99.90
2023-04-06T05:39:37.924Z,99.80
2023-04-06T05:42:08.196Z,99.70
2023-04-06T05:44:51.719Z,99.50
2023-04-06T05:47:20.300Z,99.50
2023-04-06T05:49:53.860Z,99.40
2023-04-06T05:52:33.252Z,99.50
2023-04-06T05:55:01.194Z,99.50
2023-04-06T05:57:32.464Z,99.40
2023-04-06T06:00:00.779Z,99.40
2023-04-06T06:02:40.854Z,99.50
2023-04-06T06:05:11.697Z,99.60
2023-04-06T06:07:41.579Z,99.60
2023-04-06T06:10:11.257Z,99.70
2023-04-06T06:12:41.010Z,99.70
2023-04-06T06:15:09.942Z,99.60
2023-04-06T06:17:42.295Z,99.60
2023-04-06T06:20:11.169Z,99.70
2023-04-06T06:22:41.113Z,99.80
2023-04-06T06:25:12.783Z,99.90
2023-04-06T06:27:42.859Z,99.90
2023-04-06T06:30:11.676Z,99.60
2023-04-06T06:32:42.690Z,99.60
2023-04-06T06:35:11.120Z,99.60
2023-04-06T06:37:39.873Z,99.60
2023-04-06T06:40:14.126Z,99.60
2023-04-06T06:42:44.567Z,99.60
2023-04-06T06:45:27.713Z,99.50
2023-04-06T06:47:55.901Z,99.20
2023-04-06T06:50:23.879Z,99.10
2023-04-06T06:52:51.820Z,98.90
2023-04-06T06:55:20.609Z,98.80
2023-04-06T06:57:49.859Z,98.60
2023-04-06T07:00:18.190Z,98.70
2023-04-06T07:02:48.060Z,98.30
2023-04-06T07:05:27.744Z,98.30
2023-04-06T07:07:58.490Z,98.10
2023-04-06T07:10:28.040Z,97.90
2023-04-06T07:12:57.361Z,97.50
2023-04-06T07:15:25.458Z,97.30
2023-04-06T07:17:55.554Z,97.00
2023-04-06T07:20:24.061Z,96.80
2023-04-06T07:22:52.014Z,96.30
2023-04-06T07:25:19.979Z,96.20
2023-04-06T07:27:48.983Z,95.90
2023-04-06T07:30:19.740Z,95.70
2023-04-06T07:32:47.845Z,95.40
2023-04-06T07:35:17.404Z,95.20
2023-04-06T07:37:45.495Z,95.00
2023-04-06T07:40:13.632Z,94.90
2023-04-06T07:42:42.639Z,94.30
2023-04-06T07:45:12.397Z,93.70
2023-04-06T07:47:41.745Z,93.20
2023-04-06T07:50:11.036Z,93.10
2023-04-06T07:52:39.101Z,92.60
2023-04-06T07:55:08.274Z,91.90
2023-04-06T07:57:36.274Z,92.00
2023-04-06T08:00:05.577Z,90.80
2023-04-06T08:02:41.537Z,90.10
2023-04-06T08:05:10.307Z,90.10
2023-04-06T08:07:38.270Z,89.60
2023-04-06T08:10:06.876Z,89.20
2023-04-06T08:12:34.991Z,85.90
2023-04-06T08:15:03.526Z,82.10
2023-04-06T08:17:32.118Z,82.00
2023-04-06T08:20:01.702Z,81.80
2023-04-06T08:22:29.644Z,80.90
2023-04-06T08:24:57.557Z,80.70
2023-04-06T08:27:25.578Z,77.40
2023-04-06T08:29:53.552Z,75.40
2023-04-06T08:32:21.648Z,75.10
2023-04-06T08:34:49.564Z,75.70
2023-04-06T08:37:18.883Z,73.70
2023-04-06T08:39:46.779Z,68.60
2023-04-06T08:42:21.503Z,65.70
2023-04-06T08:44:51.124Z,68.20
2023-04-06T08:47:19.017Z,69.60
2023-04-06T08:49:48.770Z,70.10
2023-04-06T08:52:20.787Z,69.40
2023-04-06T08:54:49.607Z,68.00
2023-04-06T08:57:18.516Z,66.50
2023-04-06T08:59:47.012Z,60.40
2023-04-06T09:02:19.255Z,59.50
2023-04-06T09:04:48.681Z,60.70
2023-04-06T09:07:18.465Z,59.40
2023-04-06T09:09:49.532Z,58.30
2023-04-06T09:12:35.947Z,60.90
2023-04-06T09:15:04.451Z,63.10
2023-04-06T09:17:34.610Z,62.40
2023-04-06T09:20:04.122Z,61.30
2023-04-06T09:22:39.212Z,58.80
2023-04-06T09:25:08.691Z,59.20
2023-04-06T09:27:37.677Z,58.90
2023-04-06T09:30:07.826Z,58.10
2023-04-06T09:32:47.530Z,58.20
2023-04-06T09:35:15.846Z,58.20
2023-04-06T09:37:46.695Z,53.80
2023-04-06T09:40:18.312Z,54.30
2023-04-06T09:42:49.044Z,53.60
2023-04-06T09:45:17.082Z,53.80
2023-04-06T09:47:46.811Z,54.40
2023-04-06T09:50:17.346Z,54.10
2023-04-06T09:52:51.366Z,55.50
2023-04-06T09:55:26.092Z,57.40
2023-04-06T09:58:00.518Z,53.00
2023-04-06T10:00:30.082Z,47.20
2023-04-06T10:03:02.540Z,46.70
2023-04-06T10:05:36.219Z,48.80
2023-04-06T10:08:09.198Z,47.30
2023-04-06T10:10:37.564Z,50.70
2023-04-06T10:13:06.909Z,53.20
2023-04-06T10:15:35.893Z,54.10
2023-04-06T10:18:05.652Z,52.00
2023-04-06T10:20:41.619Z,51.00
2023-04-06T10:23:17.136Z,49.90
2023-04-06T10:25:55.451Z,47.70
2023-04-06T10:28:23.996Z,47.10
2023-04-06T10:30:58.706Z,45.40
2023-04-06T10:33:26.812Z,47.40
2023-04-06T10:35:54.996Z,44.90
2023-04-06T10:38:37.034Z,46.20
2023-04-06T10:41:08.008Z,45.60
2023-04-06T10:43:37.616Z,47.20
2023-04-06T10:46:06.991Z,45.20
2023-04-06T10:48:42.096Z,46.20
2023-04-06T10:51:14.172Z,47.20
2023-04-06T10:53:46.252Z,47.80
2023-04-06T10:56:15.832Z,48.20
2023-04-06T10:58:47.947Z,45.90
2023-04-06T11:01:17.807Z,45.40
2023-04-06T11:03:46.815Z,46.10
2023-04-06T11:06:20.697Z,44.20
2023-04-06T11:08:50.399Z,45.30
2023-04-06T11:11:21.080Z,45.40
2023-04-06T11:13:53.745Z,46.30
2023-04-06T11:16:22.930Z,46.50
2023-04-06T11:18:52.371Z,44.80
2023-04-06T11:21:21.050Z,44.10
2023-04-06T11:23:50.473Z,46.10
2023-04-06T11:26:18.461Z,48.00
2023-04-06T11:28:46.581Z,44.30
2023-04-06T11:31:14.745Z,44.80
2023-04-06T11:33:42.802Z,44.30
2023-04-06T11:36:10.908Z,44.00
2023-04-06T11:38:41.403Z,43.90
2023-04-06T11:41:10.865Z,44.90
2023-04-06T11:43:38.809Z,44.20
2023-04-06T11:46:07.821Z,45.80
2023-04-06T11:48:46.486Z,44.20
2023-04-06T11:51:14.800Z,45.40
2023-04-06T11:53:46.853Z,44.00
2023-04-06T11:56:27.057Z,44.70
2023-04-06T11:58:57.098Z,44.60
2023-04-06T12:01:25.698Z,46.30
2023-04-06T12:03:54.183Z,43.90
2023-04-06T12:06:22.319Z,42.20
2023-04-06T12:08:50.673Z,42.80
2023-04-06T12:11:20.943Z,43.70
2023-04-06T12:13:50.269Z,43.20
2023-04-06T12:16:20.189Z,43.40
2023-04-06T12:18:48.321Z,44.50
2023-04-06T12:21:16.240Z,45.10
2023-04-06T12:23:44.185Z,44.90
2023-04-06T12:26:13.065Z,42.50
2023-04-06T12:28:41.722Z,42.70
2023-04-06T12:31:16.904Z,42.10
2023-04-06T12:33:45.881Z,43.10
2023-04-06T12:36:14.739Z,43.80
2023-04-06T12:38:42.954Z,44.60
2023-04-06T12:41:10.945Z,43.60
2023-04-06T12:43:39.417Z,43.10
2023-04-06T12:46:07.448Z,45.50
2023-04-06T12:48:37.559Z,43.80
2023-04-06T12:51:07.592Z,46.60
2023-04-06T12:53:36.961Z,44.90
2023-04-06T12:56:12.289Z,43.20
2023-04-06T12:58:41.197Z,44.10
2023-04-06T13:01:10.472Z,45.10
2023-04-06T13:03:39.800Z,44.90
2023-04-06T13:06:09.228Z,42.10
2023-04-06T13:08:38.111Z,43.40
2023-04-06T13:11:09.039Z,43.50
2023-04-06T13:13:37.728Z,45.80
2023-04-06T13:16:07.566Z,42.90
2023-04-06T13:18:36.406Z,41.80
2023-04-06T13:21:06.134Z,42.50
2023-04-06T13:23:34.070Z,42.90
2023-04-06T13:26:04.126Z,44.00
2023-04-06T13:28:32.281Z,41.90
2023-04-06T13:31:01.298Z,43.30
2023-04-06T13:33:30.038Z,42.40
2023-04-06T13:35:58.509Z,42.80
2023-04-06T13:38:28.052Z,40.90
2023-04-06T13:40:56.246Z,40.20
2023-04-06T13:43:27.047Z,37.70
2023-04-06T13:45:57.014Z,38.40
2023-04-06T13:48:25.261Z,38.10
2023-04-06T13:50:53.169Z,38.30
2023-04-06T13:53:21.254Z,37.10
2023-04-06T13:55:56.283Z,37.50
2023-04-06T13:58:25.014Z,37.40
2023-04-06T14:00:53.654Z,37.10
2023-04-06T14:03:22.231Z,36.70
2023-04-06T14:05:50.360Z,35.00
2023-04-06T14:08:18.425Z,34.10
2023-04-06T14:10:46.337Z,34.80
2023-04-06T14:13:16.422Z,34.20
2023-04-06T14:15:44.305Z,31.90
2023-04-06T14:18:12.651Z,33.20
2023-04-06T14:20:40.578Z,33.30
2023-04-06T14:23:08.710Z,33.70
2023-04-06T14:25:37.332Z,33.90
2023-04-06T14:28:05.380Z,34.00
2023-04-06T14:30:34.663Z,34.20
2023-04-06T14:33:02.724Z,33.70
2023-04-06T14:35:33.397Z,34.00
2023-04-06T14:38:02.497Z,34.20
2023-04-06T14:40:30.455Z,33.90
2023-04-06T14:42:58.391Z,32.90
2023-04-06T14:45:26.371Z,33.50
2023-04-06T14:47:55.832Z,34.70
2023-04-06T14:50:23.866Z,33.20
2023-04-06T14:52:52.707Z,34.00
2023-04-06T14:55:21.744Z,34.20
2023-04-06T14:57:49.690Z,33.40
2023-04-06T15:00:18.538Z,32.80
2023-04-06T15:02:46.569Z,31.70
2023-04-06T15:05:15.996Z,32.00
2023-04-06T15:07:43.986Z,31.40
2023-04-06T15:10:12.794Z,33.60
2023-04-06T15:12:40.735Z,33.10
2023-04-06T15:15:09.545Z,32.40
2023-04-06T15:17:37.790Z,32.30
2023-04-06T15:20:07.003Z,30.70
2023-04-06T15:22:36.263Z,31.80
2023-04-06T15:25:04.566Z,31.70
2023-04-06T15:27:32.752Z,32.40
2023-04-06T15:30:00.662Z,32.50
2023-04-06T15:32:28.746Z,32.20
2023-04-06T15:34:58.398Z,32.70
2023-04-06T15:37:26.627Z,33.60
2023-04-06T15:39:55.918Z,31.70
2023-04-06T15:42:23.841Z,30.70
2023-04-06T15:44:51.778Z,31.00
2023-04-06T15:47:19.840Z,31.10
2023-04-06T15:49:48.116Z,32.10
2023-04-06T15:52:16.093Z,31.40
2023-04-06T15:54:44.596Z,31.90
2023-04-06T15:57:14.754Z,32.10
2023-04-06T15:59:42.798Z,31.90
2023-04-06T16:02:10.910Z,31.60
2023-04-06T16:04:38.976Z,32.10
2023-04-06T16:07:07.159Z,32.10
2023-04-06T16:09:35.658Z,33.10
2023-04-06T16:12:03.779Z,33.50
2023-04-06T16:14:33.045Z,33.30
2023-04-06T16:17:01.099Z,33.40
2023-04-06T16:19:29.241Z,33.90
2023-04-06T16:21:57.725Z,33.90
2023-04-06T16:24:25.756Z,33.50
2023-04-06T16:26:53.732Z,33.70
2023-04-06T16:29:21.946Z,35.20
2023-04-06T16:31:51.300Z,34.80
2023-04-06T16:34:19.360Z,34.30
2023-04-06T16:36:48.249Z,33.40
2023-04-06T16:39:17.187Z,34.30
2023-04-06T16:41:45.288Z,34.20
2023-04-06T16:44:13.316Z,34.30
2023-04-06T16:46:41.552Z,36.10
2023-04-06T16:49:11.372Z,35.70
2023-04-06T16:51:42.065Z,36.50
2023-04-06T16:54:10.471Z,34.90
2023-04-06T16:56:38.477Z,34.70
2023-04-06T16:59:09.963Z,35.10
2023-04-06T17:01:38.901Z,34.90
2023-04-06T17:04:07.236Z,35.20
2023-04-06T17:06:36.766Z,34.60
2023-04-06T17:09:04.821Z,35.20
2023-04-06T17:11:43.680Z,34.10
2023-04-06T17:14:14.405Z,34.70
2023-04-06T17:16:42.514Z,35.30
2023-04-06T17:19:10.616Z,35.10
2023-04-06T17:21:41.714Z,35.60
2023-04-06T17:24:10.796Z,35.80
2023-04-06T17:26:38.730Z,36.90
2023-04-06T17:29:06.789Z,36.70
2023-04-06T17:31:34.768Z,36.40
2023-04-06T17:34:03.061Z,37.10
2023-04-06T17:36:32.641Z,37.60
2023-04-06T17:39:01.954Z,38.20
2023-04-06T17:41:32.617Z,38.50
2023-04-06T17:44:01.288Z,39.60
2023-04-06T17:46:29.214Z,38.60
2023-04-06T17:48:57.166Z,38.60
2023-04-06T17:51:26.488Z,39.10
2023-04-06T17:53:54.655Z,38.00
2023-04-06T17:56:24.425Z,39.00
2023-04-06T17:58:56.841Z,39.00
2023-04-06T18:01:24.806Z,39.40
2023-04-06T18:03:53.059Z,40.20
2023-04-06T18:06:25.122Z,41.00
2023-04-06T18:08:53.855Z,41.00
2023-04-06T18:11:23.256Z,40.90
2023-04-06T18:13:51.514Z,42.60
2023-04-06T18:16:21.385Z,43.40
2023-04-06T18:18:49.602Z,43.50
2023-04-06T18:21:17.724Z,44.00
2023-04-06T18:23:45.656Z,44.30
2023-04-06T18:26:18.197Z,44.20
2023-04-06T18:28:47.945Z,44.50
2023-04-06T18:31:16.016Z,44.00
2023-04-06T18:33:44.327Z,44.20
2023-04-06T18:36:13.382Z,45.50
2023-04-06T18:38:45.320Z,45.20
2023-04-06T18:41:13.437Z,45.90
2023-04-06T18:43:41.491Z,45.60
2023-04-06T18:46:13.698Z,45.60
2023-04-06T18:48:42.038Z,46.20
2023-04-06T18:51:10.845Z,45.60
2023-04-06T18:53:39.900Z,46.90
2023-04-06T18:56:15.542Z,47.80
2023-04-06T18:58:43.510Z,48.00
2023-04-06T19:01:20.848Z,48.90
2023-04-06T19:03:48.957Z,49.10
2023-04-06T19:06:17.674Z,49.50
2023-04-06T19:08:45.653Z,48.80
2023-04-06T19:11:14.050Z,52.50
2023-04-06T19:13:42.114Z,51.20
2023-04-06T19:16:10.784Z,51.90
2023-04-06T19:18:42.697Z,51.70
2023-04-06T19:21:16.756Z,51.80
2023-04-06T19:23:45.097Z,51.30
2023-04-06T19:26:13.825Z,51.00
2023-04-06T19:28:42.524Z,50.90
2023-04-06T19:31:11.720Z,51.70
2023-04-06T19:33:41.772Z,53.40
2023-04-06T19:36:10.079Z,53.70
2023-04-06T19:38:39.121Z,52.80
2023-04-06T19:41:07.485Z,53.00
2023-04-06T19:43:35.560Z,52.20
2023-04-06T19:46:05.062Z,52.90
2023-04-06T19:48:34.320Z,54.10
2023-04-06T19:51:04.013Z,54.40
2023-04-06T19:53:33.017Z,55.00
2023-04-06T19:56:00.951Z,54.70
2023-04-06T19:58:29.856Z,54.40
2023-04-06T20:00:58.792Z,55.10
2023-04-06T20:03:26.907Z,55.50
2023-04-06T20:05:54.933Z,56.30
2023-04-06T20:08:24.712Z,57.40
2023-04-06T20:10:52.664Z,58.00
2023-04-06T20:13:21.550Z,58.20
2023-04-06T20:15:50.356Z,59.10
2023-04-06T20:18:18.403Z,59.40
2023-04-06T20:20:46.901Z,59.70
2023-04-06T20:23:14.991Z,59.90
2023-04-06T20:25:44.412Z,59.90
2023-04-06T20:28:12.411Z,60.00
2023-04-06T20:30:40.813Z,60.30
2023-04-06T20:33:08.825Z,60.50
2023-04-06T20:35:36.793Z,60.20
2023-04-06T20:38:04.812Z,60.90
2023-04-06T20:40:32.968Z,61.00
2023-04-06T20:43:04.476Z,61.30
2023-04-06T20:45:38.277Z,61.40
2023-04-06T20:48:06.395Z,61.40
2023-04-06T20:50:34.371Z,61.60
2023-04-06T20:53:02.430Z,62.00
2023-04-06T20:55:30.820Z,62.60
2023-04-06T20:57:58.770Z,62.80
2023-04-06T21:00:28.096Z,62.80
2023-04-06T21:02:56.275Z,62.60
2023-04-06T21:05:24.536Z,62.80
2023-04-06T21:07:52.623Z,63.00
2023-04-06T21:10:20.724Z,63.50
2023-04-06T21:12:48.626Z,63.60
2023-04-06T21:15:16.973Z,63.40
2023-04-06T21:17:46.537Z,64.10
2023-04-06T21:20:14.740Z,64.30
2023-04-06T21:22:42.620Z,64.40
2023-04-06T21:25:12.239Z,64.50
2023-04-06T21:27:41.008Z,64.60
2023-04-06T21:30:10.448Z,65.30
2023-04-06T21:32:38.493Z,65.60
2023-04-06T21:35:09.364Z,66.80
2023-04-06T21:37:37.287Z,66.90
2023-04-06T21:40:06.000Z,66.50
2023-04-06T21:42:33.952Z,67.20
2023-04-06T21:45:01.873Z,67.70
2023-04-06T21:47:29.773Z,67.80
2023-04-06T21:49:57.756Z,67.90
2023-04-06T21:52:27.120Z,70.10
2023-04-06T21:54:55.045Z,71.00
2023-04-06T21:57:22.956Z,72.30
2023-04-06T21:59:50.925Z,72.70
2023-04-06T22:02:19.144Z,74.80
2023-04-06T22:04:48.134Z,73.20
2023-04-06T22:07:17.637Z,74.50
2023-04-06T22:09:50.786Z,74.10
2023-04-06T22:12:20.023Z,75.00
2023-04-06T22:14:48.019Z,75.20
2023-04-06T22:17:15.953Z,77.00
2023-04-06T22:19:43.949Z,77.30
2023-04-06T22:22:11.930Z,77.90
2023-04-06T22:24:39.841Z,79.10
2023-04-06T22:27:09.166Z,79.70
2023-04-06T22:29:37.099Z,80.80
2023-04-06T22:32:05.209Z,81.40
2023-04-06T22:34:33.184Z,82.20
2023-04-06T22:37:01.239Z,82.70
2023-04-06T22:39:29.381Z,83.10
2023-04-06T22:41:57.348Z,83.70
2023-04-06T22:44:26.860Z,84.90
2023-04-06T22:46:54.824Z,84.70
2023-04-06T22:49:22.782Z,85.30
2023-04-06T22:51:50.838Z,85.70
2023-04-06T22:54:19.058Z,86.50
2023-04-06T22:56:47.270Z,86.60
2023-04-06T22:59:15.814Z,87.50
2023-04-06T23:01:45.363Z,87.80
2023-04-06T23:04:13.352Z,88.40
2023-04-06T23:06:41.545Z,88.40
2023-04-06T23:09:09.506Z,89.00
2023-04-06T23:11:37.435Z,89.80
2023-04-06T23:14:05.393Z,90.00
2023-04-06T23:16:33.519Z,90.30
2023-04-06T23:19:02.874Z,90.60
2023-04-06T23:21:32.664Z,90.80
2023-04-06T23:24:01.688Z,90.90
2023-04-06T23:26:29.853Z,91.20
2023-04-06T23:28:57.847Z,91.60
2023-04-06T23:31:25.823Z,91.80
2023-04-06T23:33:53.836Z,91.90
2023-04-06T23:36:23.083Z,92.10
2023-04-06T23:38:51.116Z,92.20
2023-04-06T23:41:19.250Z,92.60
2023-04-06T23:43:47.244Z,92.70
2023-04-06T23:46:17.442Z,92.60
2023-04-06T23:48:45.597Z,92.90
2023-04-06T23:51:13.665Z,93.10
2023-04-06T23:53:43.024Z,93.50
2023-04-06T23:56:11.037Z,93.70
2023-04-06T23:58:39.098Z,94.00
